Time;durP1;ratioP1;P1;durP2;ratioP2;P2;SDS_P1;SDS_P2;PMS_P1;PMS_P2;Temp;Humidity;BMP_temperature;BMP_pressure;BME280_temperature;BME280_humidity;BME280_pressure;Samples;Min_cycle;Max_cycle;Signal;HPM_P1;HPM_P2
2021/03/03 00:00:39;;;;;;;9.88;4.85;;;;;;;1.15;60.28;98622.63;1743932;80;21264;-77
2021/03/03 00:03:09;;;;;;;12.25;5.72;;;;;;;1.14;60.45;98619.61;1776185;79;21148;-77
2021/03/03 00:05:58;;;;;;;9.83;4.90;;;;;;;1.08;60.46;98623.59;1744764;82;21189;-78
2021/03/03 00:08:25;;;;;;;8.45;4.78;;;;;;;1.05;60.59;98618.47;1776675;80;21271;-76
2021/03/03 00:10:52;;;;;;;8.60;4.20;;;;;;;1.03;60.64;98613.73;1753825;80;21458;-77
2021/03/03 00:13:21;;;;;;;9.43;3.45;;;;;;;1.00;60.69;98615.08;1753706;81;21129;-76
2021/03/03 00:15:48;;;;;;;10.10;5.15;;;;;;;0.96;60.60;98611.69;1753091;81;21153;-77
2021/03/03 00:18:16;;;;;;;8.58;4.53;;;;;;;0.96;60.82;98613.44;1750837;82;21294;-78
2021/03/03 00:20:44;;;;;;;8.95;4.42;;;;;;;0.90;60.57;98610.50;1762204;81;21227;-77
2021/03/03 00:23:12;;;;;;;6.75;4.90;;;;;;;0.85;61.05;98610.58;1744999;81;21258;-79
2021/03/03 00:25:40;;;;;;;6.42;4.30;;;;;;;0.81;60.78;98606.30;1744490;82;21279;-76
2021/03/03 00:28:07;;;;;;;13.22;4.42;;;;;;;0.78;60.86;98607.67;1745838;81;21124;-77
2021/03/03 00:30:34;;;;;;;8.85;4.33;;;;;;;0.77;60.86;98605.50;1768253;81;21270;-76
2021/03/03 00:33:02;;;;;;;7.53;4.12;;;;;;;0.80;60.79;98606.34;1751627;81;21180;-77
2021/03/03 00:35:30;;;;;;;10.23;3.70;;;;;;;0.77;60.77;98600.31;1751023;82;21240;-77
2021/03/03 00:37:57;;;;;;;7.28;4.00;;;;;;;0.75;60.71;98600.77;1750946;82;21685;-76
2021/03/03 00:40:25;;;;;;;7.60;4.62;;;;;;;0.75;60.79;98602.06;1750644;82;21136;-77
2021/03/03 00:42:52;;;;;;;9.70;3.92;;;;;;;0.75;60.93;98599.47;1763462;81;21128;-77
2021/03/03 00:45:20;;;;;;;6.80;3.62;;;;;;;0.72;61.16;98599.97;1759959;81;21124;-77
2021/03/03 00:47:48;;;;;;;8.28;4.50;;;;;;;0.72;61.08;98594.35;1761953;80;21130;-77
2021/03/03 00:50:16;;;;;;;7.35;3.75;;;;;;;0.73;61.18;98596.49;1753870;81;21156;-77
2021/03/03 00:52:46;;;;;;;7.70;3.50;;;;;;;0.72;60.98;98593.05;1748675;81;21148;-78
2021/03/03 00:55:14;;;;;;;7.05;3.85;;;;;;;0.73;60.88;98597.79;1753118;81;21264;-77
2021/03/03 00:57:42;;;;;;;9.70;4.17;;;;;;;0.72;60.87;98597.38;1751309;81;21137;-78
2021/03/03 01:00:13;;;;;;;6.40;3.77;;;;;;;0.71;60.85;98597.83;1750381;82;21303;-77
2021/03/03 01:02:40;;;;;;;8.25;4.28;;;;;;;0.73;60.85;98596.49;1751391;80;21267;-77
2021/03/03 01:05:12;;;;;;;7.75;4.00;;;;;;;0.76;60.93;98592.10;1743217;82;21273;-77
2021/03/03 01:07:40;;;;;;;7.03;3.72;;;;;;;0.74;60.78;98587.38;1751469;81;21278;-77
2021/03/03 01:10:09;;;;;;;7.12;3.62;;;;;;;0.72;60.75;98588.28;1697598;84;21303;-77
2021/03/03 01:12:37;;;;;;;5.80;3.55;;;;;;;0.71;60.80;98580.08;1704278;83;21276;-78
2021/03/03 01:15:11;;;;;;;8.47;3.00;;;;;;;0.69;60.86;98573.63;1715197;83;21258;-77
2021/03/03 01:17:43;;;;;;;6.40;3.27;;;;;;;0.68;60.78;98580.16;1751398;82;21264;-76
2021/03/03 01:20:14;;;;;;;6.03;3.37;;;;;;;0.64;60.81;98576.75;1751318;82;21150;-77
2021/03/03 01:22:43;;;;;;;5.25;3.05;;;;;;;0.64;60.96;98576.75;1752021;81;21252;-76
2021/03/03 01:25:12;;;;;;;4.92;2.92;;;;;;;0.67;60.92;98578.44;1753682;81;21169;-76
2021/03/03 01:27:40;;;;;;;6.10;3.30;;;;;;;0.66;60.97;98574.13;1751529;81;21150;-77
2021/03/03 01:30:09;;;;;;;7.47;4.10;;;;;;;0.66;60.96;98570.23;1751069;82;21272;-77
2021/03/03 01:32:36;;;;;;;7.28;3.60;;;;;;;0.66;60.96;98574.13;1780731;81;21256;-77
2021/03/03 01:35:04;;;;;;;7.40;3.45;;;;;;;0.62;60.98;98571.56;1781721;80;21158;-77
2021/03/03 01:37:32;;;;;;;7.10;3.98;;;;;;;0.62;61.05;98570.73;1759861;81;21151;-78
2021/03/03 01:39:59;;;;;;;7.12;4.10;;;;;;;0.60;61.02;98568.59;1741143;82;21140;-76
2021/03/03 01:42:28;;;;;;;11.12;3.72;;;;;;;0.58;61.13;98567.75;1779561;80;21306;-78
2021/03/03 01:44:58;;;;;;;9.98;4.10;;;;;;;0.54;61.03;98567.41;1751896;81;21141;-78
2021/03/03 01:47:31;;;;;;;13.03;6.50;;;;;;;0.54;61.98;98568.24;1758483;81;21104;-77
2021/03/03 01:49:59;;;;;;;15.60;6.17;;;;;;;0.48;61.31;98570.07;1781321;81;21307;-78
2021/03/03 01:52:27;;;;;;;11.43;5.22;;;;;;;0.44;61.40;98567.55;1751196;81;21150;-76
2021/03/03 01:54:54;;;;;;;12.07;5.53;;;;;;;0.40;61.42;98570.22;1750873;81;21288;-77
2021/03/03 01:57:21;;;;;;;14.35;6.15;;;;;;;0.35;61.36;98559.03;1754208;81;21134;-77
2021/03/03 01:59:49;;;;;;;14.18;7.05;;;;;;;0.33;61.55;98567.27;1763165;81;21247;-78
2021/03/03 02:02:16;;;;;;;21.20;10.43;;;;;;;0.31;61.79;98571.20;1749993;81;21246;-77
2021/03/03 02:04:44;;;;;;;20.70;10.23;;;;;;;0.30;61.72;98570.78;1742578;82;21248;-78
2021/03/03 02:07:40;;;;;;;25.68;10.32;;;;;;;0.28;61.72;98569.52;1773615;81;21295;-77
2021/03/03 02:10:22;;;;;;;19.92;9.80;;;;;;;0.24;61.79;98571.73;1757697;81;21181;-76
2021/03/03 02:13:16;;;;;;;25.47;10.50;;;;;;;0.19;61.88;98567.48;1748426;82;21124;-77
2021/03/03 02:15:49;;;;;;;23.47;8.70;;;;;;;0.15;61.94;98569.27;1740548;81;21558;-78
2021/03/03 02:18:17;;;;;;;21.80;8.95;;;;;;;0.11;62.02;98567.16;1751346;81;21285;-78
2021/03/03 02:21:25;;;;;;;21.07;9.53;;;;;;;0.10;62.00;98568.49;1762760;81;21270;-77
2021/03/03 02:24:11;;;;;;;21.00;8.40;;;;;;;0.10;62.17;98571.92;1754251;81;21569;-77
2021/03/03 02:26:41;;;;;;;16.90;7.12;;;;;;;0.12;62.30;98568.87;1779129;81;21204;-77
2021/03/03 02:29:14;;;;;;;19.63;9.00;;;;;;;0.14;62.14;98571.02;1762260;81;21140;-77
2021/03/03 02:31:45;;;;;;;17.93;8.73;;;;;;;0.11;62.20;98572.34;1768003;80;21700;-77
2021/03/03 02:34:15;;;;;;;18.75;7.55;;;;;;;0.06;62.92;98570.70;1779801;81;21156;-78
2021/03/03 02:36:45;;;;;;;17.47;7.67;;;;;;;-0.02;62.39;98563.89;1749166;81;21137;-78
2021/03/03 02:39:15;;;;;;;15.67;8.07;;;;;;;-0.01;62.53;98569.50;1749424;81;21140;-77
2021/03/03 02:41:46;;;;;;;15.43;6.50;;;;;;;0.02;62.46;98564.70;1759254;81;21234;-78
2021/03/03 02:44:14;;;;;;;16.53;6.10;;;;;;;0.02;62.46;98568.59;1780755;81;21125;-76
2021/03/03 02:57:29;;;;;;;17.92;6.28;;;;;;;0.11;62.95;98568.46;1825691;77;26482;-78
2021/03/03 02:59:58;;;;;;;13.67;6.73;;;;;;;0.05;62.71;98568.98;1800853;79;21156;-77
2021/03/03 03:02:25;;;;;;;15.60;6.92;;;;;;;0.04;62.56;98564.70;1794103;79;22126;-77
2021/03/03 03:04:55;;;;;;;15.07;6.50;;;;;;;0.00;62.47;98563.89;1765262;79;21159;-76
2021/03/03 03:07:22;;;;;;;13.43;5.67;;;;;;;-0.03;62.59;98563.92;1790446;79;21147;-76
2021/03/03 03:09:51;;;;;;;11.67;6.13;;;;;;;-0.07;62.62;98561.81;1763903;80;21260;-77
2021/03/03 03:12:20;;;;;;;10.63;5.67;;;;;;;-0.07;62.82;98564.41;1746034;82;21258;-77
2021/03/03 03:14:51;;;;;;;8.77;5.20;;;;;;;-0.13;62.97;98564.47;1730700;83;21131;-77
2021/03/03 03:17:20;;;;;;;12.00;6.00;;;;;;;-0.17;63.02;98566.70;1719722;83;21143;-76
2021/03/03 03:19:51;;;;;;;10.63;5.37;;;;;;;-0.20;63.02;98564.14;1738120;82;21579;-77
2021/03/03 03:22:21;;;;;;;13.30;5.58;;;;;;;-0.22;63.02;98564.59;1708661;82;21280;-77
2021/03/03 03:24:51;;;;;;;20.60;7.70;;;;;;;-0.24;63.04;98567.67;1673560;84;21151;-77
2021/03/03 03:27:19;;;;;;;17.20;8.23;;;;;;;-0.26;62.97;98562.94;1732442;83;21135;-77
2021/03/03 03:29:47;;;;;;;17.70;7.07;;;;;;;-0.26;63.15;98570.71;1728493;83;21142;-76
2021/03/03 03:32:16;;;;;;;18.20;7.10;;;;;;;-0.29;63.07;98566.44;1720923;83;21266;-77
2021/03/03 03:34:45;;;;;;;18.40;8.03;;;;;;;-0.28;63.27;98562.09;1711129;82;21229;-77
2021/03/03 03:37:14;;;;;;;20.20;6.83;;;;;;;-0.30;63.39;98559.53;1740047;82;21269;-74
2021/03/03 03:39:41;;;;;;;12.00;6.40;;;;;;;-0.30;63.22;98558.66;1702122;84;21123;-77
2021/03/03 03:42:11;;;;;;;18.17;7.27;;;;;;;-0.29;63.26;98562.97;1689899;85;21146;-77
2021/03/03 03:44:40;;;;;;;12.27;6.53;;;;;;;-0.27;63.35;98554.29;1702198;84;21610;-77
2021/03/03 03:47:10;;;;;;;13.17;6.37;;;;;;;-0.20;63.31;98561.13;1732045;83;21128;-77
2021/03/03 03:49:38;;;;;;;11.88;6.67;;;;;;;-0.24;63.33;98560.73;1721130;83;21116;-77
2021/03/03 03:52:05;;;;;;;13.13;7.23;;;;;;;-0.23;63.34;98564.20;1667513;85;21136;-78
2021/03/03 03:54:33;;;;;;;17.70;6.43;;;;;;;-0.27;63.47;98557.33;1675315;84;21172;-76
2021/03/03 03:57:00;;;;;;;16.07;6.30;;;;;;;-0.28;63.48;98558.20;1693359;84;21169;-77
2021/03/03 03:59:28;;;;;;;14.33;7.00;;;;;;;-0.32;64.21;98556.09;1702844;83;21164;-78
2021/03/03 04:01:55;;;;;;;9.13;4.87;;;;;;;-0.33;63.74;98558.27;1674575;84;21167;-77
2021/03/03 04:04:23;;;;;;;12.37;5.70;;;;;;;-0.39;65.50;98557.91;1700215;84;21170;-78
2021/03/03 04:06:50;;;;;;;13.03;5.43;;;;;;;-0.38;63.96;98567.39;1727074;83;21253;-76
2021/03/03 04:09:17;;;;;;;9.73;5.17;;;;;;;-0.36;63.88;98560.89;1720026;83;21160;-77
2021/03/03 04:11:49;;;;;;;10.37;5.00;;;;;;;-0.34;63.82;98559.14;1739025;82;21103;-80
2021/03/03 04:14:43;;;;;;;11.43;5.43;;;;;;;-0.38;64.02;98553.14;1701201;84;21296;-77
2021/03/03 04:17:46;;;;;;;13.70;5.57;;;;;;;-0.38;64.09;98551.00;1716909;83;21262;-78
2021/03/03 04:20:18;;;;;;;8.63;4.97;;;;;;;-0.42;64.19;98548.89;1703156;84;21180;-77
2021/03/03 04:22:45;;;;;;;14.77;6.47;;;;;;;-0.45;64.41;98547.63;1702534;84;21359;-77
2021/03/03 04:25:16;;;;;;;16.10;6.37;;;;;;;-0.46;64.29;98547.20;1717447;83;21306;-75
2021/03/03 04:27:45;;;;;;;17.17;6.80;;;;;;;-0.49;64.37;98553.29;1702318;84;21298;-77
2021/03/03 04:30:16;;;;;;;20.20;6.90;;;;;;;-0.53;64.71;98548.16;1725723;83;21289;-77
2021/03/03 04:32:46;;;;;;;15.87;7.60;;;;;;;-0.55;64.47;98547.31;1720136;82;21158;-78
2021/03/03 04:35:16;;;;;;;18.97;7.30;;;;;;;-0.56;64.36;98546.48;1709584;84;21308;-81
2021/03/03 04:38:09;;;;;;;20.57;8.03;;;;;;;-0.56;64.42;98547.77;1716261;83;21155;-78
2021/03/03 04:40:43;;;;;;;27.97;9.50;;;;;;;-0.55;64.43;98554.64;1676838;84;21297;-78
2021/03/03 04:43:12;;;;;;;25.13;8.37;;;;;;;-0.59;65.34;98546.92;1702270;84;21279;-78
2021/03/03 04:45:39;;;;;;;18.13;8.03;;;;;;;-0.61;64.78;98547.41;1730573;83;21676;-78
2021/03/03 04:48:09;;;;;;;22.70;10.07;;;;;;;-0.61;64.60;98553.87;1715066;83;21270;-78
2021/03/03 04:50:37;;;;;;;20.17;8.43;;;;;;;-0.62;64.51;98553.45;1673572;84;21165;-78
2021/03/03 04:53:05;;;;;;;18.10;8.50;;;;;;;-0.63;64.71;98552.58;1706386;83;21310;-78
2021/03/03 04:55:34;;;;;;;23.40;9.67;;;;;;;-0.65;64.60;98556.49;1735935;82;21159;-77
2021/03/03 04:58:04;;;;;;;27.40;10.37;;;;;;;-0.65;64.50;98556.49;1698630;84;21710;-77
2021/03/03 05:00:31;;;;;;;22.63;8.67;;;;;;;-0.64;64.74;98549.56;1729164;83;21536;-77
2021/03/03 05:03:31;;;;;;;21.57;8.63;;;;;;;-0.64;64.51;98560.80;1670490;84;21220;-78
2021/03/03 05:06:01;;;;;;;20.93;11.03;;;;;;;-0.66;64.64;98562.55;1677897;85;21250;-77
2021/03/03 05:08:28;;;;;;;33.23;11.73;;;;;;;-0.65;64.73;98556.49;1679706;85;21227;-76
2021/03/03 05:10:55;;;;;;;22.77;8.67;;;;;;;-0.64;64.75;98559.51;1710817;83;21295;-78
2021/03/03 05:13:27;;;;;;;33.90;10.93;;;;;;;-0.60;64.74;98560.33;1731054;83;21235;-80
2021/03/03 05:15:54;;;;;;;21.93;9.33;;;;;;;-0.58;64.66;98559.00;1700515;84;21271;-77
2021/03/03 05:18:24;;;;;;;18.33;8.63;;;;;;;-0.57;64.61;98566.77;1712417;83;21296;-76
2021/03/03 05:20:52;;;;;;;22.27;10.60;;;;;;;-0.55;64.63;98566.30;1704371;84;21148;-77
2021/03/03 05:23:30;;;;;;;25.07;10.77;;;;;;;-0.53;64.83;98562.41;1684978;84;21159;-76
2021/03/03 05:26:17;;;;;;;28.85;9.65;;;;;;;-0.52;64.56;98562.38;1681387;84;21115;-77
2021/03/03 05:28:45;;;;;;;22.13;10.60;;;;;;;-0.53;64.88;98564.55;1709354;84;21277;-78
2021/03/03 05:31:14;;;;;;;33.60;15.70;;;;;;;-0.48;64.90;98565.79;1703241;84;21137;-77
2021/03/03 05:33:44;;;;;;;21.10;9.23;;;;;;;-0.44;65.03;98566.61;1705348;84;21261;-77
2021/03/03 05:36:11;;;;;;;19.43;9.37;;;;;;;-0.43;64.96;98566.61;1709462;84;21523;-76
2021/03/03 05:38:42;;;;;;;23.57;10.00;;;;;;;-0.41;65.68;98566.58;1730143;83;21246;-78
2021/03/03 05:41:10;;;;;;;20.20;9.23;;;;;;;-0.39;65.10;98563.09;1698894;84;21320;-77
2021/03/03 05:43:39;;;;;;;20.20;9.67;;;;;;;-0.34;64.96;98570.80;1729794;83;21572;-76
2021/03/03 05:46:07;;;;;;;27.43;10.83;;;;;;;-0.24;65.04;98578.04;1679644;85;21163;-78
2021/03/03 05:48:59;;;;;;;23.17;10.03;;;;;;;-0.16;64.97;98579.63;1724189;83;21550;-77
2021/03/03 05:51:30;;;;;;;16.53;7.73;;;;;;;-0.08;64.83;98576.95;1696863;83;21140;-77
2021/03/03 05:54:04;;;;;;;23.03;9.90;;;;;;;-0.02;64.61;98575.56;1652056;85;21282;-78
2021/03/03 05:56:32;;;;;;;27.30;11.10;;;;;;;0.08;64.52;98577.59;1707649;82;21229;-77
2021/03/03 05:59:02;;;;;;;23.90;10.90;;;;;;;0.21;64.43;98581.30;1736471;82;22197;-76
2021/03/03 06:01:31;;;;;;;20.62;10.95;;;;;;;0.37;64.35;98581.47;1735406;81;21117;-77
2021/03/03 06:04:01;;;;;;;24.07;13.22;;;;;;;0.59;64.14;98579.42;1729408;82;21126;-76
2021/03/03 06:06:29;;;;;;;24.47;11.08;;;;;;;0.91;64.88;98578.01;1714423;83;21141;-76
2021/03/03 06:08:57;;;;;;;25.50;11.40;;;;;;;1.35;64.47;98577.20;1730723;81;21596;-77
2021/03/03 06:11:25;;;;;;;23.27;11.53;;;;;;;1.88;63.61;98575.70;1731784;82;21162;-77
2021/03/03 06:13:56;;;;;;;20.43;10.95;;;;;;;2.33;62.67;98579.47;1731996;82;21133;-76
2021/03/03 06:16:26;;;;;;;25.62;11.55;;;;;;;2.78;61.98;98579.71;1733932;82;21217;-77
2021/03/03 06:18:55;;;;;;;27.27;10.55;;;;;;;3.22;61.17;98582.50;1740179;82;21199;-77
2021/03/03 06:21:31;;;;;;;24.40;11.85;;;;;;;3.63;59.88;98586.16;1718916;83;21566;-79
2021/03/03 06:24:12;;;;;;;25.12;10.43;;;;;;;4.14;56.87;98583.37;1762060;79;23193;-77
2021/03/03 06:27:02;;;;;;;28.47;10.85;;;;;;;4.47;57.27;98582.78;1734910;82;21274;-76
2021/03/03 06:29:30;;;;;;;40.90;19.80;;;;;;;4.83;56.37;98584.27;1702820;82;21247;-78
2021/03/03 06:32:02;;;;;;;23.75;12.43;;;;;;;5.21;57.06;98586.47;1751299;82;21120;-79
2021/03/03 06:34:32;;;;;;;25.32;10.65;;;;;;;5.61;55.40;98587.68;1751260;82;21133;-77
2021/03/03 06:37:04;;;;;;;34.13;11.97;;;;;;;5.93;54.69;98577.33;1751534;82;21109;-79
2021/03/03 06:39:38;;;;;;;23.15;11.38;;;;;;;6.27;54.21;98580.89;1746993;81;21246;-80
2021/03/03 06:42:09;;;;;;;26.30;11.15;;;;;;;6.54;53.54;98583.73;1744206;81;21681;-81
2021/03/03 06:44:56;;;;;;;20.85;11.68;;;;;;;6.76;51.61;98580.72;1738510;82;21101;-80
2021/03/03 06:47:25;;;;;;;22.48;12.33;;;;;;;7.01;51.90;98572.66;1755207;82;21548;-78
2021/03/03 06:49:59;;;;;;;23.77;11.88;;;;;;;7.25;50.96;98569.92;1744140;82;21125;-80
2021/03/03 06:52:44;;;;;;;26.10;12.88;;;;;;;7.80;49.77;98568.80;1754575;82;21124;-79
2021/03/03 06:55:14;;;;;;;28.57;13.15;;;;;;;7.80;49.77;98568.80;1725895;83;21266;-79
2021/03/03 06:57:41;;;;;;;32.65;11.93;;;;;;;8.08;48.51;98567.52;1733456;82;21160;-79
2021/03/03 07:00:10;;;;;;;25.95;12.70;;;;;;;8.32;48.55;98558.55;1726427;83;21672;-78
2021/03/03 07:02:38;;;;;;;34.63;12.55;;;;;;;8.67;47.70;98568.72;1727288;80;21192;-80
2021/03/03 07:05:10;;;;;;;28.25;11.40;;;;;;;8.95;48.22;98569.11;1729548;81;21676;-79
2021/03/03 07:07:40;;;;;;;24.00;12.07;;;;;;;9.11;47.32;98567.87;1738045;82;21167;-78
2021/03/03 07:10:11;;;;;;;22.17;10.93;;;;;;;9.33;47.55;98559.25;1728824;81;21722;-79
2021/03/03 07:12:48;;;;;;;24.32;10.43;;;;;;;9.49;46.02;98551.89;1697702;83;21295;-80
2021/03/03 07:15:15;;;;;;;;;;;;;;;9.69;46.09;98552.14;1750584;82;21132;-79
2021/03/03 07:17:46;;;;;;;16.55;9.88;;;;;;;9.79;42.93;98555.98;1745223;82;20211;-79
2021/03/03 07:20:20;;;;;;;19.48;9.08;;;;;;;9.96;45.46;98551.13;1751261;82;21123;-81
2021/03/03 07:22:50;;;;;;;17.57;8.95;;;;;;;10.11;46.23;98552.07;1750521;81;21338;-79
2021/03/03 07:25:20;;;;;;;17.10;7.78;;;;;;;10.37;45.51;98552.84;1747596;82;21255;-79
2021/03/03 07:27:49;;;;;;;17.15;8.93;;;;;;;10.63;45.82;98546.14;1755135;82;21638;-78
2021/03/03 07:30:23;;;;;;;14.63;8.38;;;;;;;10.88;43.63;98544.70;1756041;82;21290;-79
2021/03/03 07:32:51;;;;;;;22.15;9.75;;;;;;;11.08;43.91;98546.19;1748396;82;21724;-79
2021/03/03 07:35:20;;;;;;;14.75;8.35;;;;;;;11.24;43.68;98548.28;1727764;82;21120;-78
2021/03/03 07:37:55;;;;;;;24.07;9.55;;;;;;;11.37;42.89;98546.20;1727484;82;21165;-80
2021/03/03 07:40:31;;;;;;;16.67;8.25;;;;;;;11.49;43.43;98542.83;1726817;83;21185;-79
2021/03/03 07:43:01;;;;;;;25.82;9.25;;;;;;;11.65;41.98;98543.20;1734961;82;21298;-78
2021/03/03 07:45:40;;;;;;;13.75;8.13;;;;;;;11.79;43.17;98549.81;1748747;82;21156;-78
2021/03/03 07:48:11;;;;;;;19.70;8.35;;;;;;;11.94;41.98;98548.02;1735590;82;21262;-79
2021/03/03 07:50:40;;;;;;;20.72;8.95;;;;;;;12.06;42.56;98545.09;1744575;82;21255;-79
2021/03/03 07:53:10;;;;;;;20.70;8.88;;;;;;;12.10;39.35;98543.97;1741944;82;21304;-78
2021/03/03 07:55:39;;;;;;;18.97;9.50;;;;;;;12.21;41.38;98543.73;1732011;82;21155;-79
2021/03/03 07:58:08;;;;;;;14.65;8.18;;;;;;;12.36;41.20;98544.54;1685002;85;21597;-79
2021/03/03 08:00:40;;;;;;;19.50;7.28;;;;;;;12.42;40.36;98541.52;1725911;82;21274;-78
2021/03/03 08:03:08;;;;;;;18.25;7.40;;;;;;;12.49;40.57;98543.64;1727913;82;21148;-80
2021/03/03 08:05:39;;;;;;;15.35;6.35;;;;;;;12.53;39.43;98540.81;1751880;82;21160;-79
2021/03/03 08:08:26;;;;;;;10.45;6.37;;;;;;;12.58;40.05;98540.89;1730438;81;21331;-79
2021/03/03 08:11:05;;;;;;;13.13;6.30;;;;;;;12.64;39.98;98535.19;1744732;82;21560;-78
2021/03/03 08:13:39;;;;;;;9.80;6.08;;;;;;;12.77;39.17;98531.25;1755513;82;21132;-79
2021/03/03 08:16:09;;;;;;;11.08;6.67;;;;;;;12.89;38.05;98529.61;1755318;82;21132;-80
2021/03/03 08:18:56;;;;;;;12.03;6.08;;;;;;;12.76;38.24;98530.04;1755850;82;21164;-79
2021/03/03 08:21:28;;;;;;;17.48;8.15;;;;;;;12.75;37.26;98519.08;1756177;82;21136;-78
2021/03/03 08:24:00;;;;;;;25.77;6.55;;;;;;;12.33;37.23;98522.66;1739763;82;21119;-79
2021/03/03 08:26:33;;;;;;;22.52;9.98;;;;;;;11.91;35.35;98516.48;1720173;82;21325;-80
2021/03/03 08:29:24;;;;;;;26.90;10.82;;;;;;;11.50;37.82;98515.48;1724111;82;21258;-80
2021/03/03 08:31:53;;;;;;;19.80;9.65;;;;;;;11.24;36.96;98517.94;1748651;82;21120;-80
2021/03/03 08:34:20;;;;;;;32.13;12.00;;;;;;;11.19;38.08;98517.34;1749025;82;21295;-80
2021/03/03 08:36:56;;;;;;;22.17;12.25;;;;;;;11.06;37.96;98517.72;1721856;82;21176;-80
2021/03/03 08:39:29;;;;;;;23.27;11.57;;;;;;;10.90;38.04;98517.28;1741582;81;21203;-80
2021/03/03 08:42:03;;;;;;;26.80;13.62;;;;;;;10.98;38.79;98522.13;1742192;82;21177;-80
2021/03/03 08:44:31;;;;;;;17.90;9.40;;;;;;;10.87;38.41;98517.48;1741680;82;21269;-81
2021/03/03 08:47:01;;;;;;;34.70;12.33;;;;;;;10.81;38.18;98521.78;1743530;82;21110;-80
2021/03/03 08:49:30;;;;;;;28.17;12.40;;;;;;;10.69;38.98;98515.92;1745101;82;21242;-80
2021/03/03 08:52:08;;;;;;;22.70;10.55;;;;;;;10.74;39.08;98513.86;1743371;82;21123;-78
2021/03/03 08:54:48;;;;;;;29.05;12.85;;;;;;;10.78;39.17;98514.08;1714234;82;21612;-80
2021/03/03 08:57:33;;;;;;;29.92;14.95;;;;;;;10.69;39.32;98514.61;1731430;82;21161;-79
2021/03/03 09:00:01;;;;;;;27.82;15.25;;;;;;;10.68;39.39;98512.42;1739421;82;21177;-79
2021/03/03 09:02:38;;;;;;;19.65;10.38;;;;;;;10.75;39.82;98511.16;1731875;82;21297;-79
2021/03/03 09:05:10;;;;;;;33.33;16.00;;;;;;;10.79;39.74;98505.23;1692461;84;21169;-78
2021/03/03 09:07:40;;;;;;;27.37;15.32;;;;;;;10.71;39.73;98505.66;1710610;82;21203;-78
2021/03/03 09:10:15;;;;;;;28.30;15.18;;;;;;;10.86;40.67;98507.01;1735376;82;21169;-78
2021/03/03 09:12:45;;;;;;;33.08;16.32;;;;;;;10.97;39.54;98512.50;1745636;82;21122;-78
2021/03/03 09:15:15;;;;;;;32.08;15.23;;;;;;;11.06;40.21;98496.61;1740924;82;21143;-78
2021/03/03 09:17:48;;;;;;;27.13;16.87;;;;;;;11.14;39.91;98501.41;1736195;82;21139;-79
2021/03/03 09:20:22;;;;;;;26.12;13.53;;;;;;;11.09;40.19;98501.68;1715861;82;21195;-79
2021/03/03 09:22:51;;;;;;;26.07;14.55;;;;;;;11.05;40.05;98498.38;1731006;82;21128;-80
2021/03/03 09:25:24;;;;;;;28.87;14.60;;;;;;;11.03;40.55;98493.69;1726280;82;21189;-80
2021/03/03 09:28:01;;;;;;;18.65;9.08;;;;;;;11.01;40.22;98492.06;1728420;83;21277;-79
2021/03/03 09:30:39;;;;;;;31.20;16.32;;;;;;;10.91;40.21;98498.38;1728245;82;21336;-81
2021/03/03 09:33:08;;;;;;;29.45;16.05;;;;;;;10.74;40.87;98503.31;1708107;84;21184;-80
2021/03/03 09:35:36;;;;;;;28.07;15.53;;;;;;;10.65;41.27;98499.89;1732878;78;21149;-78
2021/03/03 09:38:06;;;;;;;28.65;17.37;;;;;;;10.70;41.47;98503.12;1738248;80;21286;-79
2021/03/03 09:40:35;;;;;;;26.02;13.05;;;;;;;10.68;41.65;98503.68;1713710;82;21158;-78
2021/03/03 09:43:03;;;;;;;37.45;16.95;;;;;;;10.69;41.78;98493.03;1643539;86;21326;-78
2021/03/03 09:45:31;;;;;;;37.38;18.77;;;;;;;10.78;42.03;98496.45;1706242;84;21177;-78
2021/03/03 09:47:58;;;;;;;23.67;14.25;;;;;;;10.85;42.06;98494.30;1706644;84;21193;-77
2021/03/03 09:50:33;;;;;;;24.72;13.18;;;;;;;10.85;41.97;98498.75;1711434;83;21159;-78
2021/03/03 09:53:00;;;;;;;21.75;9.70;;;;;;;10.87;41.88;98508.71;1712304;84;21160;-78
2021/03/03 09:55:34;;;;;;;34.55;18.65;;;;;;;10.88;41.82;98502.05;1718457;82;21185;-77
2021/03/03 09:58:04;;;;;;;34.25;18.50;;;;;;;10.83;41.58;98500.13;1676721;85;21286;-77
2021/03/03 10:00:40;;;;;;;36.85;18.07;;;;;;;10.84;41.82;98499.68;1701103;84;21132;-79
2021/03/03 10:03:14;;;;;;;30.00;15.93;;;;;;;10.93;42.01;98499.14;1672781;84;21137;-79
2021/03/03 10:05:43;;;;;;;43.40;18.52;;;;;;;11.01;41.99;98502.16;1671661;84;21124;-78
2021/03/03 10:08:14;;;;;;;30.82;15.95;;;;;;;11.05;42.25;98493.59;1700678;84;21321;-79
2021/03/03 10:10:52;;;;;;;32.50;17.40;;;;;;;11.04;41.60;98491.41;1696594;84;21209;-78
2021/03/03 10:13:24;;;;;;;24.55;12.03;;;;;;;11.05;41.96;98493.59;1681369;84;21597;-79
2021/03/03 10:16:17;;;;;;;32.20;18.30;;;;;;;11.00;41.51;98488.59;1678692;84;21322;-79
2021/03/03 10:18:59;;;;;;;33.65;19.23;;;;;;;10.96;41.88;98483.10;1673389;85;21287;-81
2021/03/03 10:21:27;;;;;;;28.50;17.42;;;;;;;11.04;42.37;98478.21;1674266;86;21298;-81
2021/03/03 10:23:55;;;;;;;32.38;18.23;;;;;;;11.17;42.36;98491.54;1675298;85;21257;-80
2021/03/03 10:26:45;;;;;;;34.23;18.50;;;;;;;11.20;41.87;98476.81;1710379;83;21308;-81
2021/03/03 10:29:36;;;;;;;30.65;17.48;;;;;;;11.15;41.86;98468.34;1719604;83;21582;-81
2021/03/03 10:32:12;;;;;;;33.38;18.32;;;;;;;11.25;41.75;98467.30;1724967;83;21287;-81
2021/03/03 10:34:43;;;;;;;24.95;13.45;;;;;;;11.28;42.10;98463.62;1737365;83;21157;-80
2021/03/03 10:37:26;;;;;;;31.30;17.45;;;;;;;11.30;41.69;98467.02;1742156;82;21689;-79
2021/03/03 10:39:54;;;;;;;34.27;17.35;;;;;;;11.33;42.13;98462.88;1743049;82;21105;-81
2021/03/03 10:42:24;;;;;;;36.80;18.48;;;;;;;11.35;41.34;98455.23;1732668;82;21349;-82
2021/03/03 10:44:54;;;;;;;35.75;19.32;;;;;;;11.38;41.80;98459.02;1713374;84;21276;-81
2021/03/03 10:47:42;;;;;;;27.13;13.98;;;;;;;11.35;41.71;98446.48;1742641;82;21130;-81
2021/03/03 10:50:14;;;;;;;29.20;16.27;;;;;;;11.47;42.26;98450.14;1742978;81;21269;-80
2021/03/03 10:53:01;;;;;;;28.17;13.10;;;;;;;11.49;42.18;98442.50;1721657;82;21306;-79
2021/03/03 10:55:36;;;;;;;42.73;17.65;;;;;;;11.50;41.73;98441.55;1711842;84;21652;-80
2021/03/03 10:58:13;;;;;;;27.65;17.10;;;;;;;11.51;42.06;98438.43;1722423;82;21099;-80
2021/03/03 11:01:04;;;;;;;;;;;;;;;11.62;42.10;98427.20;1733744;82;21136;-81
2021/03/03 11:03:54;;;;;;;28.73;16.60;;;;;;;11.71;41.48;98428.78;1718644;82;20200;-78
2021/03/03 11:06:22;;;;;;;25.10;13.30;;;;;;;11.81;41.25;98427.73;1717926;82;21168;-81
2021/03/03 11:08:50;;;;;;;30.57;15.88;;;;;;;11.93;41.81;98418.62;1722240;81;21196;-78
2021/03/03 11:11:18;;;;;;;26.10;13.55;;;;;;;12.00;41.08;98422.13;1712198;82;21148;-79
2021/03/03 11:13:50;;;;;;;29.87;15.60;;;;;;;12.05;40.72;98418.35;1731281;82;21294;-81
2021/03/03 11:16:24;;;;;;;25.15;14.55;;;;;;;12.08;40.82;98413.71;1710651;83;21180;-80
2021/03/03 11:18:52;;;;;;;27.17;14.33;;;;;;;12.17;39.80;98413.56;1716879;82;21124;-80
2021/03/03 11:21:19;;;;;;;25.52;13.15;;;;;;;12.24;40.38;98406.08;1733300;82;21339;-81
2021/03/03 11:23:49;;;;;;;20.57;10.65;;;;;;;12.33;40.19;98406.33;1711564;83;21634;-80
2021/03/03 11:26:17;;;;;;;22.60;12.93;;;;;;;12.42;39.70;98395.59;1724594;83;21152;-81
2021/03/03 11:28:44;;;;;;;20.30;11.33;;;;;;;12.45;39.38;98392.76;1724900;83;21589;-82
2021/03/03 11:31:11;;;;;;;21.10;11.30;;;;;;;12.49;38.76;98394.23;1696624;83;21140;-81
2021/03/03 11:33:40;;;;;;;25.57;12.98;;;;;;;12.57;39.40;98384.95;1722989;83;21151;-81
2021/03/03 11:36:08;;;;;;;16.52;9.78;;;;;;;12.70;39.65;98383.14;1723956;83;21229;-81
2021/03/03 11:38:37;;;;;;;27.32;11.12;;;;;;;12.81;38.65;98376.64;1734312;82;21302;-80
2021/03/03 11:41:04;;;;;;;26.25;13.28;;;;;;;12.90;39.09;98371.17;1754023;82;21156;-80
2021/03/03 11:43:32;;;;;;;16.97;9.58;;;;;;;12.99;38.64;98367.05;1739620;82;21635;-81
2021/03/03 11:45:59;;;;;;;28.15;13.58;;;;;;;13.03;38.05;98365.03;1737923;82;21155;-79
2021/03/03 11:48:27;;;;;;;23.18;13.62;;;;;;;13.05;38.51;98361.31;1748992;81;21166;-79
2021/03/03 11:50:55;;;;;;;22.95;12.28;;;;;;;13.16;39.14;98357.07;1728632;82;21302;-80
2021/03/03 11:53:22;;;;;;;16.52;9.53;;;;;;;13.26;38.58;98358.97;1723987;83;21333;-79
2021/03/03 11:55:50;;;;;;;24.37;11.60;;;;;;;13.33;37.44;98355.39;1724648;82;21310;-79
2021/03/03 11:58:18;;;;;;;14.15;5.17;;;;;;;13.38;38.53;98349.30;1724093;83;21427;-78